Scroll down
FLIGHT INFORMATION
PMDG Flight Operations

PFO2201

At Arrival Gate

KLGA
 KLAX
DATE: 2020-08-03
GATE: 
GATE DEPARTURE: 16:16
TAKEOFF: 16:28
DATE: 2020-08-03
GATE: 28
LANDING: 21:34
GATE ARRIVAL: 21:43
FLIGHT DATA
Speed: 
490 kts
Altitude: 
36,092 ft
Stage Length: 
2,141.0 nm
Block Time: 
5.5 hrs
Flight Time: 
5.1 hrs
Fuel Used: 
29,965 lb
Cleared Route: KLGA ZIMMZ SPOTZ MIKYG HOTEE BEETS VINSE LEJOY AIR CORVS ZANDR BOWRR EMPTY CREEP FYLLS VHP JAAVE GORDO SPI BAYLI TWAIN SAAGS MCI JUDGE SLN RYLIE LAA ALS RSK COCAN RHYSS TBC DNERO KLAX
TRACK DATA
50,000 ft 1,000 kts
AIRCRAFT INFO AND CUMULATIVE STATS
Aircraft Type: 
B737SSW
Registration: 
SELCAL: 
MSN/LN: 
0 / 1
Total Flights: 
1
Total Block Time: 
5.4 hrs
Total Flight Time: 
5.1 hrs
Total Fuel Time: 
29,965 lb
DATALINK LOG | Newest first | Current as of: 2020-11-29 02:29:34
LABEL SEQUENCE CONTENT Dn/Up
QD450921:43 11▼ Dn
QC370121:34▼ Dn
2U0304KLAX 032053Z 27011KT 5SM BCFG BR SCT008 BKN120 22/17 A2995 RMK AO2 SLP140 SCT V BKN T02220167 58004 $▲ Up
2S0533KLAX▼ Dn
GA3100GATE 28▲ Up
GR3100KLAX 21:31 HI-VAL NO DIPL/VIP NO▼ Dn
5U1105KLAX 032202Z 26012KT 10SM BKN009 21/17 A2996▲ Up
5S1347KLAX▼ Dn
5U0803KLAX 032202Z 26012KT 10SM BKN009 21/17 A2996▲ Up
5S1044KLAX▼ Dn
QB300916:28▼ Dn
QA190016:16 41.1▼ Dn
A30903CLEARED TO KLAX VIA ZIMMZ Q42 MIKYG Q480 VINSE Q480 AIR J80 MCI J24 SLN J102 ALS J44 RSK J64 TBC DNERO ANJLL4. SQUAWK .▲ Up
Q00652[LINK ACK]▲ Up
Q00652[LINK TEST]▼ Dn


AIRCRAFT HISTORY
FLIGHT DATE FLIGHT NO. ORIGIN DESTINATION CLEARED ROUTE BLOCK TIME FLIGHT TIME FUEL USED PILOT
2020-08-03PFO2201KLGA KLAX KLGA ZIMMZ SPOTZ MIKYG HOTEE BEETS VINSE LEJOY AIR CORVS ZANDR BOWRR EMPTY CREEP FYLLS VHP JAAVE GORDO SPI BAYLI TWAIN SAAGS MCI JUDGE SLN RYLIE LAA ALS RSK COCAN RHYSS TBC DNERO KLAX5.5 hrs5.1 hrs29,965 lbRoberto Stopnicki